Time;durP1;ratioP1;P1;durP2;ratioP2;P2;SDS_P1;SDS_P2;PMS_P1;PMS_P2;Temp;Humidity;BMP_temperature;BMP_pressure;BME280_temperature;BME280_humidity;BME280_pressure;Samples;Min_cycle;Max_cycle;Signal;HPM_P1;HPM_P2
2024/01/07 00:06:11;;;;;;;;;;;4.00;99.90;;;;;;20998901;28;19923;-78
2024/01/07 00:16:11;;;;;;;;;;;4.00;99.90;;;;;;20998389;28;20011;-78
2024/01/07 00:26:12;;;;;;;;;;;4.00;99.90;;;;;;21005262;28;19920;-78
2024/01/07 00:36:13;;;;;;;;;;;4.10;99.90;;;;;;20996114;28;20312;-77
2024/01/07 00:46:13;;;;;;;;;;;4.10;99.90;;;;;;20990780;28;20345;-79
2024/01/07 00:56:14;;;;;;;;;;;4.00;99.90;;;;;;20999776;28;19926;-80
2024/01/07 01:06:15;;;;;;;;;;;4.00;99.90;;;;;;20981570;28;20302;-78
2024/01/07 01:16:15;;;;;;;;;;;3.90;99.90;;;;;;20983562;28;19913;-78
2024/01/07 01:26:16;;;;;;;;;;;4.00;99.90;;;;;;21005263;28;19917;-79
2024/01/07 01:36:17;;;;;;;;;;;3.90;99.90;;;;;;20986445;28;19928;-78
2024/01/07 01:46:17;;;;;;;;;;;3.90;99.90;;;;;;21017362;28;20353;-80
2024/01/07 01:56:20;;;;;;;;;;;3.80;99.90;;;;;;20975257;28;19916;-79
2024/01/07 02:06:21;;;;;;;;;;;3.70;99.90;;;;;;20972941;28;19916;-79
2024/01/07 02:16:22;;;;;;;;;;;3.70;99.90;;;;;;20970559;28;20007;-79
2024/01/07 02:26:24;;;;;;;;;;;3.60;99.90;;;;;;20972150;28;20360;-79
2024/01/07 02:36:25;;;;;;;;;;;3.60;99.90;;;;;;20972609;28;20298;-79
2024/01/07 02:46:25;;;;;;;;;;;3.70;99.90;;;;;;20995480;28;19924;-78
2024/01/07 02:56:26;;;;;;;;;;;3.60;99.90;;;;;;20995695;28;19917;-80
2024/01/07 03:06:27;;;;;;;;;;;3.50;99.90;;;;;;20999551;28;19959;-80
2024/01/07 03:16:28;;;;;;;;;;;3.60;99.90;;;;;;20990631;28;19912;-80
2024/01/07 03:26:32;;;;;;;;;;;3.60;99.90;;;;;;20991411;28;20315;-79
2024/01/07 03:36:33;;;;;;;;;;;3.50;99.90;;;;;;21003142;28;19916;-78
2024/01/07 03:46:33;;;;;;;;;;;3.60;99.90;;;;;;21005702;28;19916;-79
2024/01/07 03:56:34;;;;;;;;;;;3.60;99.90;;;;;;21007032;28;20343;-78
2024/01/07 04:06:35;;;;;;;;;;;3.60;99.90;;;;;;21008082;28;20007;-79
2024/01/07 04:16:35;;;;;;;;;;;3.50;99.90;;;;;;21004949;28;19913;-80
2024/01/07 04:26:36;;;;;;;;;;;3.50;99.90;;;;;;21004414;28;19916;-80
2024/01/07 04:36:36;;;;;;;;;;;3.70;99.90;;;;;;21003802;28;20364;-80
2024/01/07 04:46:38;;;;;;;;;;;3.70;99.90;;;;;;21008767;28;19916;-80
2024/01/07 04:56:38;;;;;;;;;;;3.70;99.90;;;;;;21009312;28;19938;-78
2024/01/07 05:06:39;;;;;;;;;;;3.60;99.90;;;;;;21005916;28;19916;-79
2024/01/07 05:16:40;;;;;;;;;;;3.60;99.90;;;;;;21004366;28;20402;-79
2024/01/07 05:26:44;;;;;;;;;;;3.50;99.90;;;;;;21001523;28;19916;-78
2024/01/07 05:36:45;;;;;;;;;;;3.50;99.90;;;;;;21000426;28;19936;-79
2024/01/07 05:46:45;;;;;;;;;;;3.50;99.90;;;;;;20998585;28;19927;-80
2024/01/07 05:56:46;;;;;;;;;;;3.60;99.90;;;;;;20996472;28;19940;-79
2024/01/07 06:06:46;;;;;;;;;;;3.50;99.90;;;;;;20996850;28;19931;-80
2024/01/07 06:16:47;;;;;;;;;;;3.60;99.90;;;;;;20995854;28;19912;-79
2024/01/07 06:26:48;;;;;;;;;;;3.60;99.90;;;;;;20998606;28;20284;-78
2024/01/07 06:36:48;;;;;;;;;;;3.60;99.90;;;;;;20990149;28;19913;-77
2024/01/07 06:46:49;;;;;;;;;;;3.40;99.90;;;;;;20989880;28;19917;-78
2024/01/07 06:56:49;;;;;;;;;;;3.40;99.90;;;;;;20989315;28;20321;-78
2024/01/07 07:06:51;;;;;;;;;;;3.40;99.90;;;;;;21001135;28;20375;-79
2024/01/07 07:16:51;;;;;;;;;;;3.60;99.90;;;;;;21004587;28;19919;-79
2024/01/07 07:26:52;;;;;;;;;;;3.50;99.90;;;;;;21002063;28;19959;-79
2024/01/07 07:36:52;;;;;;;;;;;3.50;99.90;;;;;;21004900;28;19964;-79
2024/01/07 07:46:53;;;;;;;;;;;3.50;99.90;;;;;;21003240;28;19920;-78
2024/01/07 07:56:53;;;;;;;;;;;3.60;99.90;;;;;;21012087;28;20405;-79
2024/01/07 08:06:56;;;;;;;;;;;3.70;99.90;;;;;;21028706;28;19927;-80
2024/01/07 08:16:56;;;;;;;;;;;3.70;99.90;;;;;;21014622;28;20394;-79
2024/01/07 08:26:57;;;;;;;;;;;3.70;99.90;;;;;;21009638;28;19952;-79
2024/01/07 08:36:58;;;;;;;;;;;3.80;99.90;;;;;;21000475;28;19913;-78
2024/01/07 08:47:00;;;;;;;;;;;3.90;99.90;;;;;;20997989;28;20383;-78
2024/01/07 08:57:00;;;;;;;;;;;3.90;99.90;;;;;;20979205;28;19916;-78
2024/01/07 09:07:01;;;;;;;;;;;3.80;99.90;;;;;;21001054;28;19931;-78
2024/01/07 09:17:02;;;;;;;;;;;3.70;99.90;;;;;;20997729;28;20450;-78
2024/01/07 09:27:03;;;;;;;;;;;3.80;99.90;;;;;;20997915;28;19920;-79
2024/01/07 09:37:04;;;;;;;;;;;3.90;99.90;;;;;;20996570;28;19936;-78
2024/01/07 09:47:05;;;;;;;;;;;3.90;99.90;;;;;;20996790;28;20007;-79
2024/01/07 09:57:07;;;;;;;;;;;3.90;99.90;;;;;;21005674;28;19928;-78
2024/01/07 10:07:07;;;;;;;;;;;4.00;99.90;;;;;;20992569;28;19969;-80
2024/01/07 10:17:16;;;;;;;;;;;4.00;99.90;;;;;;20993985;28;20403;-78
2024/01/07 10:27:17;;;;;;;;;;;4.10;99.90;;;;;;20990700;28;20409;-78
2024/01/07 10:37:19;;;;;;;;;;;4.20;99.90;;;;;;20996582;28;19913;-79
2024/01/07 10:47:21;;;;;;;;;;;4.10;99.90;;;;;;21009427;28;19916;-79
2024/01/07 10:57:34;;;;;;;;;;;4.30;99.90;;;;;;21019814;28;19916;-79
2024/01/07 11:07:39;;;;;;;;;;;4.30;99.90;;;;;;21017505;28;19917;-77
2024/01/07 11:17:41;;;;;;;;;;;4.40;99.90;;;;;;20997949;28;19923;-78
2024/01/07 11:27:42;;;;;;;;;;;4.50;99.90;;;;;;20996415;28;19962;-79
2024/01/07 11:37:43;;;;;;;;;;;4.50;99.90;;;;;;20998593;28;19913;-77
2024/01/07 11:47:44;;;;;;;;;;;4.60;99.90;;;;;;20994382;28;20343;-77
2024/01/07 11:57:45;;;;;;;;;;;4.70;99.90;;;;;;21012697;28;20015;-78
2024/01/07 12:07:45;;;;;;;;;;;4.80;99.90;;;;;;21008607;28;20007;-78
2024/01/07 12:17:59;;;;;;;;;;;4.80;99.90;;;;;;21014548;28;19956;-78
2024/01/07 12:28:00;;;;;;;;;;;5.10;99.90;;;;;;21009267;28;19962;-78
2024/01/07 12:38:02;;;;;;;;;;;5.00;99.90;;;;;;21003370;28;19942;-78
2024/01/07 12:48:03;;;;;;;;;;;5.00;99.90;;;;;;21001762;28;19964;-78
2024/01/07 12:58:03;;;;;;;;;;;5.10;99.90;;;;;;21002037;28;19925;-78
2024/01/07 13:08:04;;;;;;;;;;;5.00;99.90;;;;;;21001407;28;19928;-78
2024/01/07 13:18:05;;;;;;;;;;;4.80;99.90;;;;;;20995865;28;19916;-79
2024/01/07 13:28:10;;;;;;;;;;;4.80;99.90;;;;;;21010205;28;19963;-78
2024/01/07 13:38:10;;;;;;;;;;;4.90;99.90;;;;;;20987814;28;19913;-78
2024/01/07 13:48:11;;;;;;;;;;;4.90;99.90;;;;;;20992313;28;19956;-78
2024/01/07 13:58:12;;;;;;;;;;;4.70;99.90;;;;;;20995232;28;19916;-78
2024/01/07 14:08:13;;;;;;;;;;;4.60;99.90;;;;;;20997010;28;19955;-78
2024/01/07 14:18:15;;;;;;;;;;;4.50;99.90;;;;;;21001562;28;19916;-79
2024/01/07 14:28:16;;;;;;;;;;;4.50;99.90;;;;;;20994032;28;19917;-78
2024/01/07 14:38:17;;;;;;;;;;;4.50;99.90;;;;;;21001040;28;19979;-78
2024/01/07 14:48:17;;;;;;;;;;;4.60;99.90;;;;;;21005224;28;19923;-80
2024/01/07 14:58:18;;;;;;;;;;;4.60;99.90;;;;;;21012035;28;20330;-79
2024/01/07 15:08:19;;;;;;;;;;;4.40;99.90;;;;;;21017652;28;19920;-79
2024/01/07 15:18:19;;;;;;;;;;;4.20;99.90;;;;;;21009971;28;19912;-78
2024/01/07 15:28:20;;;;;;;;;;;4.20;99.90;;;;;;21009988;28;20526;-77
2024/01/07 15:38:21;;;;;;;;;;;3.90;99.90;;;;;;21005979;28;19912;-77
2024/01/07 15:48:21;;;;;;;;;;;3.70;99.90;;;;;;21000743;28;19961;-78
2024/01/07 15:58:22;;;;;;;;;;;3.50;99.90;;;;;;21004396;28;19969;-76
2024/01/07 16:08:25;;;;;;;;;;;3.30;99.90;;;;;;21003501;28;19916;-75
2024/01/07 16:18:26;;;;;;;;;;;3.10;99.90;;;;;;21000598;28;20004;-75
2024/01/07 16:28:27;;;;;;;;;;;3.00;99.90;;;;;;21637359;23;19992;-76
2024/01/07 16:38:27;;;;;;;;;;;2.90;99.90;;;;;;20856853;28;20374;-74
2024/01/07 16:48:28;;;;;;;;;;;2.90;99.90;;;;;;20827549;28;19929;-74
2024/01/07 16:58:29;;;;;;;;;;;2.80;99.90;;;;;;20832161;28;19921;-75
2024/01/07 17:08:29;;;;;;;;;;;2.70;99.90;;;;;;20829705;28;19917;-74
2024/01/07 17:18:30;;;;;;;;;;;2.60;99.90;;;;;;20830676;28;19913;-74
2024/01/07 17:28:31;;;;;;;;;;;2.50;99.90;;;;;;20825144;28;19971;-74
2024/01/07 17:38:31;;;;;;;;;;;2.50;99.90;;;;;;20823091;28;19921;-74
2024/01/07 17:48:32;;;;;;;;;;;2.50;99.90;;;;;;20822717;28;19917;-75
2024/01/07 17:58:33;;;;;;;;;;;2.40;99.90;;;;;;20824560;28;19935;-75
2024/01/07 18:08:34;;;;;;;;;;;2.30;99.90;;;;;;20815766;28;19917;-76
2024/01/07 18:18:35;;;;;;;;;;;2.20;99.90;;;;;;20849365;28;19913;-76
2024/01/07 18:28:36;;;;;;;;;;;2.20;99.90;;;;;;20830554;28;20012;-78
2024/01/07 18:38:38;;;;;;;;;;;2.10;99.90;;;;;;20831536;28;19920;-77
2024/01/07 18:48:38;;;;;;;;;;;2.20;99.90;;;;;;20837801;28;20015;-77
2024/01/07 18:58:39;;;;;;;;;;;2.10;99.90;;;;;;20901593;28;19913;-77
2024/01/07 19:08:40;;;;;;;;;;;2.10;99.90;;;;;;20919896;28;19970;-77
2024/01/07 19:18:40;;;;;;;;;;;2.00;99.90;;;;;;20915760;28;19913;-75
2024/01/07 19:28:42;;;;;;;;;;;1.90;99.90;;;;;;20899238;28;19943;-77
2024/01/07 19:38:43;;;;;;;;;;;1.90;99.90;;;;;;20881571;28;19921;-77
2024/01/07 19:48:43;;;;;;;;;;;1.80;99.90;;;;;;20906775;28;19994;-75
2024/01/07 19:58:45;;;;;;;;;;;1.80;99.90;;;;;;20912181;28;20268;-75
2024/01/07 20:08:47;;;;;;;;;;;1.60;99.90;;;;;;20912194;28;19979;-73
2024/01/07 20:18:49;;;;;;;;;;;1.60;99.90;;;;;;20911639;28;19912;-77
2024/01/07 20:28:50;;;;;;;;;;;1.50;99.90;;;;;;20910809;28;19917;-74
2024/01/07 20:38:51;;;;;;;;;;;1.50;99.90;;;;;;20896320;28;20428;-75
2024/01/07 20:48:51;;;;;;;;;;;1.60;99.90;;;;;;20902993;28;20305;-75
2024/01/07 20:58:52;;;;;;;;;;;1.50;99.90;;;;;;20904400;28;20038;-76
2024/01/07 21:08:52;;;;;;;;;;;1.50;99.90;;;;;;20903252;28;20506;-74
2024/01/07 21:18:53;;;;;;;;;;;1.50;99.90;;;;;;20900708;28;19944;-76
2024/01/07 21:28:54;;;;;;;;;;;1.40;99.90;;;;;;20897574;28;19924;-75
2024/01/07 21:38:55;;;;;;;;;;;1.50;99.90;;;;;;20893639;28;19916;-74
2024/01/07 21:48:56;;;;;;;;;;;1.50;99.90;;;;;;20899324;28;20010;-76
2024/01/07 21:58:56;;;;;;;;;;;1.50;99.90;;;;;;20897904;28;19932;-75
2024/01/07 22:08:57;;;;;;;;;;;1.30;99.90;;;;;;20896615;28;19916;-74
2024/01/07 22:18:58;;;;;;;;;;;1.30;99.90;;;;;;20893437;28;19917;-75
2024/01/07 22:28:58;;;;;;;;;;;1.20;99.90;;;;;;20888435;28;19960;-75
2024/01/07 22:38:59;;;;;;;;;;;1.20;99.90;;;;;;20868704;28;19948;-76
2024/01/07 22:48:59;;;;;;;;;;;1.10;99.90;;;;;;20899045;28;19959;-75
2024/01/07 22:59:00;;;;;;;;;;;1.10;99.90;;;;;;20873980;28;19975;-76
2024/01/07 23:09:01;;;;;;;;;;;1.00;99.90;;;;;;20874158;28;20429;-76
2024/01/07 23:19:02;;;;;;;;;;;0.90;99.90;;;;;;20875026;28;19935;-75
2024/01/07 23:29:03;;;;;;;;;;;1.00;99.90;;;;;;20872392;28;20051;-76
2024/01/07 23:39:03;;;;;;;;;;;0.90;99.90;;;;;;20873397;28;19944;-75
2024/01/07 23:49:04;;;;;;;;;;;0.90;99.90;;;;;;20884343;28;19924;-76
2024/01/07 23:59:08;;;;;;;;;;;0.80;99.90;;;;;;20881441;28;19920;-75
